Time;durP1;ratioP1;P1;durP2;ratioP2;P2;SDS_P1;SDS_P2;PMS_P1;PMS_P2;Temp;Humidity;BMP_temperature;BMP_pressure;BME280_temperature;BME280_humidity;BME280_pressure;Samples;Min_cycle;Max_cycle;Signal;HPM_P1;HPM_P2
2021/12/15 00:01:49;;;;;;;0.77;0.77;;;;;;;8.73;81.22;102405.72;5181617;28;20251;-80
2021/12/15 00:04:20;;;;;;;1.10;1.10;;;;;;;8.72;81.98;102405.69;5216155;28;20037;-80
2021/12/15 00:06:51;;;;;;;1.73;1.63;;;;;;;8.75;81.66;102405.75;5215365;28;20041;-79
2021/12/15 00:09:21;;;;;;;0.85;0.75;;;;;;;8.76;81.62;102395.28;5200360;28;20508;-80
2021/12/15 00:11:52;;;;;;;0.85;0.80;;;;;;;8.71;81.65;102401.34;5212717;28;20060;-79
2021/12/15 00:14:22;;;;;;;0.50;0.50;;;;;;;8.74;81.98;102399.59;5202016;28;20045;-79
2021/12/15 00:16:53;;;;;;;1.92;1.77;;;;;;;8.73;81.60;102394.38;5197193;28;20059;-80
2021/12/15 00:19:23;;;;;;;1.00;1.00;;;;;;;8.72;81.70;102397.84;5209947;28;20052;-79
2021/12/15 00:21:56;;;;;;;1.35;1.25;;;;;;;8.77;81.81;102388.28;5199109;28;20514;-80
2021/12/15 00:24:27;;;;;;;0.88;0.88;;;;;;;8.79;81.67;102390.06;5208495;28;20073;-80
2021/12/15 00:26:58;;;;;;;1.23;1.10;;;;;;;8.75;81.64;102390.91;5233502;28;20033;-80
2021/12/15 00:29:28;;;;;;;2.13;0.95;;;;;;;8.74;81.76;102402.22;5202253;28;20649;-80
2021/12/15 00:32:03;;;;;;;1.25;1.17;;;;;;;8.82;81.54;102402.28;5215102;28;20029;-80
2021/12/15 00:34:40;;;;;;;1.45;1.42;;;;;;;8.84;81.67;102411.03;5191833;28;20042;-79
2021/12/15 00:37:11;;;;;;;0.90;0.90;;;;;;;8.80;81.74;102402.25;5208676;28;20048;-80
2021/12/15 00:39:42;;;;;;;0.52;0.52;;;;;;;8.73;81.68;102402.22;5197379;28;20495;-79
2021/12/15 00:42:13;;;;;;;0.50;0.50;;;;;;;8.79;81.76;102404.88;5203879;28;20370;-79
2021/12/15 00:44:44;;;;;;;0.98;0.95;;;;;;;8.78;81.96;102410.97;5188844;28;20045;-81
2021/12/15 00:47:15;;;;;;;0.93;0.85;;;;;;;8.75;81.46;102403.97;5213968;28;20395;-80
2021/12/15 00:49:45;;;;;;;0.57;0.57;;;;;;;8.78;81.69;102398.78;5187953;28;20057;-80
2021/12/15 00:52:16;;;;;;;4.68;2.78;;;;;;;8.78;81.72;102397.88;5209642;28;20032;-81
2021/12/15 00:54:47;;;;;;;0.75;0.75;;;;;;;8.75;81.67;102403.13;5190606;28;20087;-80
2021/12/15 00:57:18;;;;;;;0.82;0.82;;;;;;;8.79;81.52;102402.25;5191184;28;20025;-80
2021/12/15 00:59:48;;;;;;;0.55;0.55;;;;;;;8.87;81.83;102402.34;5204131;28;20048;-81
2021/12/15 01:02:19;;;;;;;0.80;0.80;;;;;;;9.01;81.42;102411.16;5188513;28;20087;-78
2021/12/15 01:04:50;;;;;;;0.43;0.43;;;;;;;8.84;82.14;102403.19;5183045;28;20583;-81
2021/12/15 01:07:21;;;;;;;0.52;0.52;;;;;;;8.89;81.79;102405.81;5196001;28;20029;-79
2021/12/15 01:09:55;;;;;;;0.80;0.80;;;;;;;8.87;82.41;102411.03;5194773;28;20048;-79
2021/12/15 01:20:54;;;;;;;1.02;1.00;;;;;;;8.83;82.09;102411.91;5203547;28;20049;-76
2021/12/15 01:23:28;;;;;;;0.85;0.85;;;;;;;8.90;81.84;102416.31;5194098;28;20076;-79
2021/12/15 01:26:06;;;;;;;0.73;0.73;;;;;;;8.92;81.68;102416.31;5207645;28;20116;-78
2021/12/15 01:28:37;;;;;;;0.80;0.80;;;;;;;8.85;82.37;102414.53;5188786;28;20099;-79
2021/12/15 01:31:09;;;;;;;0.65;0.65;;;;;;;8.83;82.75;102411.91;5174718;28;20036;-81
2021/12/15 01:33:41;;;;;;;1.30;1.20;;;;;;;8.83;82.78;102411.91;5198928;28;20036;-78
2021/12/15 01:36:12;;;;;;;2.55;1.30;;;;;;;8.97;82.17;102414.59;5200149;28;20199;-79
2021/12/15 01:38:46;;;;;;;0.98;0.95;;;;;;;8.87;82.62;102407.56;5170460;28;20125;-80
2021/12/15 01:41:22;;;;;;;0.85;0.85;;;;;;;8.84;82.64;102408.44;5195918;28;20057;-79
2021/12/15 01:46:59;;;;;;;1.08;1.08;;;;;;;8.91;82.22;102415.47;5192895;28;20099;-81
2021/12/15 01:49:32;;;;;;;1.15;1.15;;;;;;;8.83;82.80;102414.53;5187944;28;20037;-81
2021/12/15 01:52:09;;;;;;;1.83;1.52;;;;;;;8.87;82.86;102412.81;5169554;28;20033;-79
2021/12/15 01:54:44;;;;;;;0.75;0.75;;;;;;;8.90;82.19;102411.09;5174776;28;20263;-80
2021/12/15 01:57:16;;;;;;;0.40;0.40;;;;;;;8.93;82.70;102407.59;5175553;28;20033;-82
2021/12/15 01:59:49;;;;;;;1.98;1.48;;;;;;;8.87;82.11;102410.19;5187646;28;20146;-82
2021/12/15 02:02:21;;;;;;;2.15;1.95;;;;;;;8.93;81.97;102410.22;5187630;28;20045;-79
2021/12/15 02:04:53;;;;;;;0.82;0.82;;;;;;;8.99;81.88;102407.63;5186671;28;20038;-79
2021/12/15 02:07:25;;;;;;;2.03;1.45;;;;;;;8.86;81.67;102416.28;5203135;28;20132;-80
2021/12/15 02:12:34;;;;;;;1.05;1.02;;;;;;;8.82;81.92;102415.38;5191519;28;20546;-78
2021/12/15 02:15:27;;;;;;;1.42;1.38;;;;;;;8.74;83.20;102417.94;5188877;28;20049;-79
2021/12/15 02:17:58;;;;;;;1.02;1.02;;;;;;;8.77;83.32;102417.06;5191579;28;20029;-82
2021/12/15 02:20:42;;;;;;;0.57;0.57;;;;;;;8.72;83.51;102418.78;5189415;28;20090;-80
2021/12/15 02:23:19;;;;;;;0.65;0.65;;;;;;;8.69;84.29;102418.75;5179412;28;20499;-80
2021/12/15 02:25:49;;;;;;;0.98;0.98;;;;;;;8.74;84.17;102423.16;5191469;28;20458;-79
2021/12/15 02:28:21;;;;;;;2.53;1.27;;;;;;;8.74;84.55;102423.16;5175909;28;20112;-79
2021/12/15 02:33:48;;;;;;;0.60;0.60;;;;;;;8.75;84.23;102427.53;5182298;28;20061;-80
2021/12/15 02:39:10;;;;;;;1.15;0.93;;;;;;;8.71;85.01;102430.13;5206341;28;20037;-82
2021/12/15 02:41:42;;;;;;;2.55;1.95;;;;;;;8.63;85.83;102432.69;5213535;28;20033;-81
2021/12/15 02:44:19;;;;;;;0.70;0.70;;;;;;;8.61;85.87;102431.78;5170305;28;20042;-80
2021/12/15 02:46:52;;;;;;;1.13;1.13;;;;;;;8.70;85.17;102425.75;5201452;28;20025;-83
2021/12/15 02:49:27;;;;;;;0.40;0.40;;;;;;;8.60;86.35;102430.91;5193299;28;20071;-81
2021/12/15 02:51:59;;;;;;;0.60;0.60;;;;;;;8.60;86.39;102424.81;5191131;28;20119;-80
2021/12/15 02:54:30;;;;;;;1.98;1.10;;;;;;;8.53;87.18;102417.75;5187343;28;20088;-84
2021/12/15 02:57:06;;;;;;;0.60;0.60;;;;;;;8.71;86.07;102423.16;5192700;28;20069;-81
2021/12/15 02:59:52;;;;;;;0.88;0.88;;;;;;;8.65;86.45;102423.09;5191612;28;20042;-82
2021/12/15 03:08:07;;;;;;;1.52;1.10;;;;;;;8.69;85.81;102427.50;5205215;28;20037;-81
2021/12/15 03:16:21;;;;;;;0.88;0.88;;;;;;;8.78;85.81;102424.06;5225085;28;20494;-82
2021/12/15 03:18:52;;;;;;;0.52;0.52;;;;;;;8.82;85.47;102420.63;5205996;28;20049;-83
2021/12/15 03:21:26;;;;;;;0.60;0.60;;;;;;;8.78;85.83;102419.72;5189431;28;20071;-80
2021/12/15 03:24:02;;;;;;;1.55;1.45;;;;;;;8.71;86.16;102417.94;5194512;28;20053;-79
2021/12/15 03:26:40;;;;;;;0.68;0.65;;;;;;;8.63;86.34;102417.00;5211825;28;20112;-80
2021/12/15 03:37:40;;;;;;;0.47;0.47;;;;;;;8.63;87.01;102420.47;5190006;28;20052;-81
2021/12/15 03:40:15;;;;;;;1.92;1.05;;;;;;;8.61;87.36;102432.66;5192837;28;20096;-85
2021/12/15 03:42:54;;;;;;;0.50;0.50;;;;;;;8.59;87.21;102415.19;5194547;28;20030;-78
2021/12/15 03:45:32;;;;;;;1.33;1.17;;;;;;;8.62;86.53;102417.84;5194787;28;20037;-81
2021/12/15 03:48:10;;;;;;;0.82;0.73;;;;;;;8.57;87.56;102422.16;5195701;28;20021;-80
2021/12/15 03:50:43;;;;;;;2.20;0.77;;;;;;;8.69;86.46;102430.13;5202307;28;20036;-82
2021/12/15 03:53:14;;;;;;;0.75;0.75;;;;;;;8.55;87.72;102429.13;5193746;28;20144;-80
2021/12/15 03:55:46;;;;;;;0.90;0.90;;;;;;;8.53;88.17;102428.22;5192730;28;20112;-84
2021/12/15 03:58:22;;;;;;;0.40;0.40;;;;;;;8.50;88.46;102434.31;5181642;28;20052;-79
2021/12/15 04:01:00;;;;;;;1.05;1.05;;;;;;;8.48;88.24;102426.44;5207387;28;20049;-82
2021/12/15 04:03:35;;;;;;;0.50;0.50;;;;;;;8.55;88.25;102431.75;5213338;28;20030;-87
2021/12/15 04:06:10;;;;;;;0.40;0.40;;;;;;;8.51;88.47;102430.84;5204247;28;20140;-83
2021/12/15 04:08:41;;;;;;;0.82;0.82;;;;;;;8.61;87.45;102437.03;5190894;28;20040;-83
2021/12/15 04:11:15;;;;;;;1.27;1.00;;;;;;;8.59;87.60;102431.78;5197511;28;20025;-81
2021/12/15 04:13:47;;;;;;;0.93;0.88;;;;;;;8.53;88.00;102438.69;5194071;28;20025;-82
2021/12/15 04:19:09;;;;;;;0.43;0.43;;;;;;;8.54;87.86;102441.31;5207266;28;20042;-80
2021/12/15 04:21:40;;;;;;;0.57;0.57;;;;;;;8.65;87.54;102444.03;5188472;28;20241;-82
2021/12/15 04:24:16;;;;;;;0.65;0.65;;;;;;;8.54;88.09;102441.31;5188477;28;20126;-80
2021/12/15 04:26:48;;;;;;;0.70;0.70;;;;;;;8.55;87.99;102442.22;5178202;28;20032;-83
2021/12/15 04:29:19;;;;;;;1.10;0.90;;;;;;;8.38;89.38;102440.28;5174811;28;20538;-81
2021/12/15 04:31:58;;;;;;;0.65;0.65;;;;;;;8.51;88.32;102436.06;5189539;28;20124;-79
2021/12/15 04:34:28;;;;;;;0.70;0.70;;;;;;;8.55;88.07;102440.47;5173380;28;20116;-82
2021/12/15 04:36:59;;;;;;;1.05;1.05;;;;;;;8.45;89.10;102447.31;5206469;28;20045;-78
2021/12/15 04:39:30;;;;;;;0.80;0.77;;;;;;;8.57;87.95;102437.84;5196373;28;20041;-80
2021/12/15 04:42:01;;;;;;;1.00;0.95;;;;;;;8.55;88.39;102450.06;5207319;28;20033;-82
2021/12/15 04:44:33;;;;;;;4.10;2.35;;;;;;;8.63;87.33;102451.00;5188658;28;20048;-78
2021/12/15 04:47:11;;;;;;;0.40;0.40;;;;;;;8.57;88.48;102440.47;5212494;28;20041;-78
2021/12/15 04:49:48;;;;;;;0.57;0.57;;;;;;;8.54;87.93;102446.53;5206767;28;20065;-78
2021/12/15 04:52:22;;;;;;;0.52;0.52;;;;;;;8.52;88.42;102442.16;5191756;28;20025;-78
2021/12/15 04:54:53;;;;;;;0.57;0.57;;;;;;;8.50;88.59;102450.88;5220562;28;20037;-78
2021/12/15 04:57:24;;;;;;;0.52;0.52;;;;;;;8.55;88.71;102447.44;5214241;28;20028;-78
2021/12/15 04:59:55;;;;;;;0.63;0.63;;;;;;;8.50;88.74;102447.41;5186927;28;20045;-78
2021/12/15 05:02:26;;;;;;;0.98;0.98;;;;;;;8.48;88.48;102444.75;5210695;28;20029;-79
2021/12/15 05:04:58;;;;;;;0.45;0.45;;;;;;;8.48;88.69;102447.38;5184679;28;20042;-78
2021/12/15 05:07:28;;;;;;;0.45;0.45;;;;;;;8.49;88.24;102449.13;5207667;28;20033;-79
2021/12/15 05:10:00;;;;;;;1.05;1.05;;;;;;;8.43;89.12;102448.19;5173461;28;20045;-79
2021/12/15 05:12:30;;;;;;;0.52;0.52;;;;;;;8.45;89.23;102460.41;5208204;28;20043;-80
2021/12/15 05:15:01;;;;;;;0.40;0.40;;;;;;;8.49;88.36;102450.88;5190239;28;20042;-79
2021/12/15 05:17:32;;;;;;;3.50;1.67;;;;;;;8.48;88.58;102447.38;5176895;28;20052;-80
2021/12/15 05:20:05;;;;;;;0.77;0.77;;;;;;;8.49;88.75;102445.63;5187120;28;20045;-80
2021/12/15 05:22:38;;;;;;;0.75;0.75;;;;;;;8.55;88.23;102456.16;5191466;28;20040;-80
2021/12/15 05:25:10;;;;;;;0.50;0.50;;;;;;;8.50;88.23;102455.25;5211524;28;20404;-79
2021/12/15 05:27:42;;;;;;;0.70;0.70;;;;;;;8.47;88.81;102461.31;5213350;28;20029;-79
2021/12/15 05:30:15;;;;;;;0.63;0.63;;;;;;;8.53;87.75;102454.41;5185228;28;20052;-78
2021/12/15 05:32:47;;;;;;;0.60;0.60;;;;;;;8.45;88.60;102455.16;5188995;28;20030;-79
2021/12/15 05:35:22;;;;;;;0.52;0.52;;;;;;;8.45;88.62;102457.78;5207542;28;20037;-78
2021/12/15 05:37:56;;;;;;;1.05;1.05;;;;;;;8.50;88.66;102457.88;5218226;28;20096;-78
2021/12/15 05:40:28;;;;;;;0.50;0.50;;;;;;;8.44;88.96;102462.97;5221881;28;20037;-79
2021/12/15 05:42:59;;;;;;;0.50;0.50;;;;;;;8.57;87.94;102466.63;5178700;28;20141;-79
2021/12/15 05:45:38;;;;;;;0.50;0.50;;;;;;;8.46;88.75;102459.53;5191395;28;20064;-78
2021/12/15 05:48:12;;;;;;;0.60;0.60;;;;;;;8.52;88.61;102463.09;5205886;28;20037;-79
2021/12/15 05:50:45;;;;;;;1.20;1.17;;;;;;;8.49;88.58;102466.56;5190264;28;20037;-79
2021/12/15 05:53:17;;;;;;;1.83;1.73;;;;;;;8.45;88.61;102470.88;5210338;28;20229;-79
2021/12/15 05:55:47;;;;;;;0.57;0.57;;;;;;;8.46;89.46;102472.63;5209717;28;20044;-80
2021/12/15 05:58:18;;;;;;;0.85;0.85;;;;;;;8.49;88.49;102470.03;5178638;28;20534;-77
2021/12/15 06:00:49;;;;;;;0.47;0.47;;;;;;;8.55;88.40;102484.06;5184437;28;20030;-80
2021/12/15 06:03:20;;;;;;;0.93;0.93;;;;;;;8.52;88.57;102479.66;5203200;28;20040;-80
2021/12/15 06:05:51;;;;;;;0.47;0.47;;;;;;;8.40;89.35;102480.38;5196953;28;20041;-80
2021/12/15 06:08:21;;;;;;;0.73;0.73;;;;;;;8.41;88.80;102478.66;5209193;28;20101;-80
2021/12/15 06:10:52;;;;;;;4.60;1.20;;;;;;;8.43;89.25;102477.81;5203173;28;20103;-81
2021/12/15 06:13:26;;;;;;;0.77;0.77;;;;;;;8.41;89.05;102482.13;5210514;28;20025;-79
2021/12/15 06:15:58;;;;;;;3.45;2.15;;;;;;;8.46;88.48;102483.09;5193583;28;20053;-78
2021/12/15 06:18:29;;;;;;;0.65;0.65;;;;;;;8.40;89.46;102487.38;5211534;28;20490;-79
2021/12/15 06:20:59;;;;;;;1.02;1.02;;;;;;;8.49;88.25;102484.88;5171885;28;20100;-79
2021/12/15 06:23:30;;;;;;;1.88;1.50;;;;;;;8.44;89.07;102484.81;5193627;28;20116;-79
2021/12/15 06:26:03;;;;;;;0.82;0.82;;;;;;;8.38;88.98;102482.13;5193218;28;20048;-78
2021/12/15 06:28:35;;;;;;;0.67;0.67;;;;;;;8.41;88.70;102489.13;5175205;28;20163;-79
2021/12/15 06:31:10;;;;;;;1.85;1.75;;;;;;;8.50;88.22;102486.63;5194217;28;20291;-79
2021/12/15 06:33:43;;;;;;;0.77;0.77;;;;;;;8.47;88.43;102497.94;5185830;28;20059;-80
2021/12/15 06:36:20;;;;;;;1.83;1.73;;;;;;;8.42;88.87;102489.13;5187270;28;20031;-79
2021/12/15 06:38:53;;;;;;;0.82;0.82;;;;;;;8.48;88.41;102485.75;5195558;28;20455;-80
2021/12/15 06:41:24;;;;;;;1.80;1.70;;;;;;;8.47;88.35;102490.06;5188098;28;20033;-79
2021/12/15 06:43:57;;;;;;;0.80;0.80;;;;;;;8.42;88.96;102490.88;5202945;28;20518;-80
2021/12/15 07:00:42;;;;;;;0.55;0.55;;;;;;;8.35;89.38;102497.78;5165759;28;20506;-79
2021/12/15 07:03:15;;;;;;;0.47;0.47;;;;;;;8.36;89.69;102504.78;5205188;28;20040;-78
2021/12/15 07:05:46;;;;;;;0.77;0.77;;;;;;;8.43;88.86;102506.59;5204054;28;20042;-79
2021/12/15 07:08:18;;;;;;;0.60;0.60;;;;;;;8.47;88.68;102503.16;5189430;28;20071;-78
2021/12/15 07:10:51;;;;;;;1.25;1.25;;;;;;;8.45;88.83;102509.22;5190546;28;20033;-78
2021/12/15 07:13:25;;;;;;;0.93;0.93;;;;;;;8.44;88.91;102508.34;5192057;28;20100;-79
2021/12/15 07:16:07;;;;;;;1.45;1.35;;;;;;;8.37;89.17;102505.63;5207821;28;20477;-79
2021/12/15 07:19:03;;;;;;;1.42;1.33;;;;;;;8.32;89.70;102513.44;5187555;28;20045;-78
2021/12/15 07:21:38;;;;;;;0.85;0.82;;;;;;;8.38;89.26;102520.47;5209790;28;20041;-78
2021/12/15 07:24:09;;;;;;;0.73;0.70;;;;;;;8.37;89.36;102522.22;5214463;28;20041;-78
2021/12/15 07:26:39;;;;;;;0.40;0.40;;;;;;;8.33;89.71;102521.31;5194023;28;20029;-78
2021/12/15 07:29:10;;;;;;;0.50;0.50;;;;;;;8.33;89.79;102523.03;5217715;28;20072;-80
2021/12/15 07:31:41;;;;;;;0.50;0.50;;;;;;;8.31;90.19;102530.88;5173895;28;20086;-79
2021/12/15 07:34:11;;;;;;;1.42;1.42;;;;;;;8.39;90.11;102538.78;5178932;28;20056;-79
2021/12/15 07:36:42;;;;;;;0.60;0.60;;;;;;;8.40;90.21;102537.06;5197007;28;20025;-82
2021/12/15 07:39:15;;;;;;;0.82;0.82;;;;;;;8.38;89.99;102528.31;5181223;28;20116;-80
2021/12/15 07:41:51;;;;;;;2.60;2.20;;;;;;;8.37;90.09;102532.69;5207607;28;20025;-82
2021/12/15 07:44:22;;;;;;;0.85;0.85;;;;;;;8.44;89.58;102536.22;5207872;28;20048;-80
2021/12/15 07:46:53;;;;;;;0.98;0.98;;;;;;;8.48;88.84;102541.53;5208749;28;20026;-78
2021/12/15 07:49:25;;;;;;;1.35;1.27;;;;;;;8.42;89.66;102538.84;5191642;28;20727;-80
2021/12/15 07:52:02;;;;;;;9.63;8.73;;;;;;;8.36;90.23;102546.63;5168389;28;20041;-80
2021/12/15 07:54:36;;;;;;;2.35;2.25;;;;;;;8.41;90.19;102539.69;5187646;28;20038;-77
2021/12/15 07:57:11;;;;;;;0.68;0.68;;;;;;;8.45;89.62;102551.97;5174236;28;20029;-80
2021/12/15 07:59:41;;;;;;;1.25;1.15;;;;;;;8.47;89.68;102544.16;5177793;28;20040;-80
2021/12/15 08:02:15;;;;;;;0.47;0.47;;;;;;;8.54;89.37;102551.19;5194968;28;20033;-77
2021/12/15 08:04:46;;;;;;;0.85;0.85;;;;;;;8.46;89.27;102538.03;5187759;28;20132;-78
2021/12/15 08:07:17;;;;;;;0.75;0.75;;;;;;;8.47;89.46;102538.91;5202330;28;20159;-79
2021/12/15 08:09:49;;;;;;;2.60;1.77;;;;;;;8.45;89.36;102546.72;5199816;28;20045;-79
2021/12/15 08:12:20;;;;;;;1.02;1.02;;;;;;;8.43;89.69;102547.56;5210997;28;20558;-79
2021/12/15 08:14:50;;;;;;;1.30;1.25;;;;;;;8.48;89.93;102549.38;5186250;28;20041;-78
2021/12/15 08:17:21;;;;;;;0.65;0.65;;;;;;;8.43;89.54;102548.44;5196753;28;20036;-79
2021/12/15 08:19:52;;;;;;;0.50;0.50;;;;;;;8.52;89.25;102546.81;5206060;28;20190;-79
2021/12/15 08:22:23;;;;;;;1.35;0.63;;;;;;;8.44;89.83;102552.81;5210524;28;20103;-78
2021/12/15 08:24:55;;;;;;;0.60;0.60;;;;;;;8.43;89.81;102543.22;5202672;28;20809;-79
2021/12/15 08:27:25;;;;;;;0.80;0.80;;;;;;;8.39;89.75;102551.88;5227890;28;20040;-80
2021/12/15 08:29:56;;;;;;;0.40;0.40;;;;;;;8.41;90.08;102550.16;5202072;28;20554;-79
2021/12/15 08:32:26;;;;;;;1.05;1.05;;;;;;;8.45;89.84;102554.56;5204171;28;20037;-80
2021/12/15 08:34:57;;;;;;;1.42;1.35;;;;;;;8.43;89.98;102551.06;5187059;28;20065;-79
2021/12/15 08:37:27;;;;;;;1.55;1.45;;;;;;;8.41;89.83;102559.75;5188321;28;20064;-79
2021/12/15 08:39:58;;;;;;;0.57;0.57;;;;;;;8.46;90.00;102558.94;5205707;28;20326;-78
2021/12/15 08:42:30;;;;;;;10.63;2.53;;;;;;;8.44;89.73;102560.66;5191358;28;20078;-78
2021/12/15 08:45:00;;;;;;;3.40;1.85;;;;;;;8.44;89.94;102560.66;5223587;28;20042;-78
2021/12/15 08:47:31;;;;;;;23.85;2.20;;;;;;;8.49;89.69;102564.22;5211713;28;20029;-78
2021/12/15 08:50:06;;;;;;;0.43;0.43;;;;;;;8.53;89.58;102575.59;5210784;28;20038;-79
2021/12/15 08:52:37;;;;;;;1.02;1.02;;;;;;;8.45;90.04;102566.75;5196193;28;20035;-78
2021/12/15 08:55:09;;;;;;;1.73;1.33;;;;;;;8.46;89.72;102561.56;5208633;28;20037;-78
2021/12/15 08:57:49;;;;;;;0.50;0.50;;;;;;;8.49;90.04;102563.38;5185358;28;20034;-79
2021/12/15 09:00:22;;;;;;;0.55;0.50;;;;;;;8.55;89.83;102568.66;5210427;28;20037;-79
2021/12/15 09:02:57;;;;;;;10.85;2.05;;;;;;;8.52;90.19;102572.97;5208103;28;20153;-80
2021/12/15 09:05:28;;;;;;;1.92;1.63;;;;;;;8.51;90.43;102574.72;5179040;28;20033;-79
2021/12/15 09:08:00;;;;;;;0.80;0.80;;;;;;;8.48;91.00;102578.16;5198981;28;20040;-79
2021/12/15 09:10:36;;;;;;;1.30;1.23;;;;;;;8.57;90.43;102579.13;5208610;28;20130;-79
2021/12/15 09:13:08;;;;;;;0.75;0.75;;;;;;;8.61;90.75;102578.31;5190073;28;20025;-78
2021/12/15 09:15:41;;;;;;;0.60;0.60;;;;;;;8.47;90.96;102572.94;5210177;28;20729;-79
2021/12/15 09:18:12;;;;;;;0.75;0.75;;;;;;;8.52;90.73;102570.38;5172177;28;20037;-79
2021/12/15 09:20:44;;;;;;;0.50;0.50;;;;;;;8.56;90.70;102566.91;5217803;28;20067;-79
2021/12/15 09:23:17;;;;;;;0.65;0.65;;;;;;;8.57;90.73;102566.06;5187909;28;20121;-79
2021/12/15 09:25:54;;;;;;;1.88;1.15;;;;;;;8.54;90.14;102566.91;5188727;28;20033;-80
2021/12/15 09:28:26;;;;;;;0.65;0.65;;;;;;;8.61;90.19;102568.72;5195854;28;20033;-79
2021/12/15 09:30:57;;;;;;;0.82;0.82;;;;;;;8.64;89.78;102575.72;5217176;28;20049;-78
2021/12/15 09:33:30;;;;;;;0.40;0.40;;;;;;;8.61;89.77;102578.31;5202901;28;20021;-79
2021/12/15 09:36:03;;;;;;;1.00;1.00;;;;;;;8.57;90.17;102586.97;5216922;28;20042;-79
2021/12/15 09:38:34;;;;;;;;;;;;;;;8.52;90.47;102581.69;5173176;28;20219;-79
2021/12/15 09:41:08;;;;;;;0.75;0.75;;;;;;;8.60;90.13;102589.66;5185036;28;19959;-78
2021/12/15 09:43:41;;;;;;;0.82;0.82;;;;;;;8.61;90.31;102588.78;5185280;28;20035;-79
2021/12/15 09:46:17;;;;;;;;;;;;;;;;;;;;;
2021/12/15 10:03:27;;;;;;;0.70;0.70;;;;;;;8.68;89.76;102597.59;5171626;28;20076;-78
2021/12/15 10:19:57;;;;;;;0.40;0.40;;;;;;;8.71;90.22;102595.88;5184944;28;20044;-80
2021/12/15 10:22:40;;;;;;;0.52;0.52;;;;;;;8.71;89.76;102589.75;5194632;28;20484;-79
2021/12/15 10:25:14;;;;;;;0.90;0.90;;;;;;;8.76;89.61;102594.19;5208074;28;20048;-80
2021/12/15 10:27:48;;;;;;;0.75;0.75;;;;;;;8.72;89.55;102595.00;5189904;28;20029;-79
2021/12/15 10:30:25;;;;;;;0.60;0.60;;;;;;;8.80;89.26;102585.47;5209725;28;20443;-79
2021/12/15 10:33:02;;;;;;;1.65;1.55;;;;;;;8.78;89.22;102587.22;5204667;28;20104;-77
2021/12/15 10:35:36;;;;;;;0.93;0.93;;;;;;;8.79;89.03;102594.22;5187545;28;20069;-79
2021/12/15 10:38:25;;;;;;;0.88;0.88;;;;;;;8.85;88.87;102587.28;5196545;28;20064;-80
2021/12/15 10:41:15;;;;;;;0.47;0.47;;;;;;;8.78;89.08;102586.34;5194701;28;20245;-77
2021/12/15 10:43:58;;;;;;;1.13;1.13;;;;;;;8.76;89.21;102594.19;5181621;28;20403;-79
2021/12/15 10:46:42;;;;;;;0.63;0.63;;;;;;;8.78;88.73;102595.09;5196150;28;20115;-77
2021/12/15 10:49:24;;;;;;;0.50;0.50;;;;;;;8.82;88.81;102589.00;5211420;28;20047;-77
2021/12/15 10:52:11;;;;;;;0.50;0.50;;;;;;;8.84;88.93;102601.22;5195700;28;20446;-79
2021/12/15 10:54:51;;;;;;;0.73;0.73;;;;;;;8.86;89.22;102594.28;5214631;28;20492;-79
2021/12/15 10:57:34;;;;;;;0.50;0.50;;;;;;;8.83;89.02;102595.13;5217324;28;20032;-79
2021/12/15 11:00:10;;;;;;;0.77;0.77;;;;;;;8.87;88.88;102596.03;5196064;28;20037;-83
2021/12/15 11:02:41;;;;;;;0.77;0.77;;;;;;;8.85;89.42;102588.16;5198556;28;20090;-78
2021/12/15 11:05:21;;;;;;;1.30;1.20;;;;;;;8.88;88.97;102589.94;5195717;28;20041;-79
2021/12/15 11:07:58;;;;;;;0.95;0.93;;;;;;;8.88;89.15;102587.34;5183552;28;20033;-79
2021/12/15 11:10:32;;;;;;;0.55;0.55;;;;;;;8.92;88.90;102589.09;5195339;28;20035;-79
2021/12/15 11:13:06;;;;;;;0.60;0.60;;;;;;;8.92;88.98;102589.09;5198804;28;20021;-78
2021/12/15 11:15:40;;;;;;;;;;;;;;;8.94;88.58;102598.72;5182737;28;20542;-78
2021/12/15 11:18:23;;;;;;;1.52;1.42;;;;;;;8.87;88.85;102602.13;5198096;28;19913;-80
2021/12/15 11:21:00;;;;;;;0.98;0.98;;;;;;;8.91;88.47;102595.19;5203753;28;20064;-78
2021/12/15 11:23:32;;;;;;;0.80;0.80;;;;;;;8.89;88.75;102592.56;5197651;28;20048;-78
2021/12/15 11:26:11;;;;;;;0.47;0.47;;;;;;;8.84;89.03;102596.91;5175515;28;20037;-78
2021/12/15 11:28:45;;;;;;;0.73;0.73;;;;;;;8.89;88.66;102589.94;5223231;28;20060;-78
2021/12/15 11:31:17;;;;;;;2.17;1.23;;;;;;;8.94;89.21;102587.38;5196852;28;20471;-79
2021/12/15 11:33:51;;;;;;;0.98;0.63;;;;;;;8.98;88.45;102594.38;5175228;28;20025;-78
2021/12/15 11:36:26;;;;;;;1.23;1.17;;;;;;;8.92;88.35;102594.34;5184023;28;20052;-79
2021/12/15 11:39:15;;;;;;;0.50;0.50;;;;;;;8.97;89.06;102588.28;5189035;28;20677;-78
2021/12/15 11:41:49;;;;;;;1.05;1.05;;;;;;;8.98;88.92;102583.91;5178600;28;20529;-79
2021/12/15 11:44:24;;;;;;;2.80;1.38;;;;;;;9.05;88.75;102583.09;5196161;28;20049;-79
2021/12/15 11:47:03;;;;;;;0.90;0.90;;;;;;;8.96;89.19;102580.44;5214812;28;20067;-79
2021/12/15 11:49:39;;;;;;;1.00;1.00;;;;;;;9.04;88.65;102577.88;5211368;28;20033;-79
2021/12/15 11:52:14;;;;;;;0.60;0.60;;;;;;;9.00;89.09;102581.34;5194201;28;20087;-79
2021/12/15 11:54:49;;;;;;;0.70;0.70;;;;;;;9.01;88.70;102578.72;5179135;28;20046;-79
2021/12/15 11:57:25;;;;;;;0.60;0.60;;;;;;;8.97;89.20;102576.91;5201815;28;20025;-79
2021/12/15 12:00:13;;;;;;;3.20;1.80;;;;;;;8.99;89.26;102577.81;5176026;28;20752;-81
2021/12/15 12:02:47;;;;;;;0.68;0.68;;;;;;;9.00;88.97;102579.56;5209886;28;20033;-78
2021/12/15 12:05:20;;;;;;;0.82;0.82;;;;;;;9.04;88.95;102584.00;5203004;28;20668;-80
2021/12/15 12:07:57;;;;;;;;;;;;;;;9.01;89.03;102578.72;5212063;28;20045;-79
2021/12/15 12:10:42;;;;;;;0.95;0.95;;;;;;;9.04;89.19;102576.13;5193821;28;20020;-82
2021/12/15 12:13:27;;;;;;;0.93;0.90;;;;;;;9.13;88.79;102581.44;5193235;28;20527;-79
2021/12/15 12:16:01;;;;;;;3.20;1.58;;;;;;;9.08;88.75;102575.28;5200436;28;20037;-79
2021/12/15 12:18:32;;;;;;;0.73;0.73;;;;;;;9.08;88.86;102572.66;5185077;28;20021;-79
2021/12/15 12:21:09;;;;;;;1.30;1.27;;;;;;;9.06;89.10;102577.00;5193264;28;20634;-78
2021/12/15 12:23:44;;;;;;;1.02;1.02;;;;;;;9.04;89.23;102577.88;5195492;28;20065;-78
2021/12/15 12:26:17;;;;;;;2.05;1.67;;;;;;;9.07;89.17;102565.69;5195020;28;20448;-78
2021/12/15 12:28:48;;;;;;;1.13;1.13;;;;;;;9.08;89.00;102571.81;5177974;28;20089;-80
2021/12/15 12:31:23;;;;;;;1.35;1.25;;;;;;;9.11;88.79;102575.31;5205970;28;20723;-79
2021/12/15 12:33:54;;;;;;;0.50;0.50;;;;;;;9.28;87.94;102567.59;5191292;28;20036;-80
2021/12/15 12:36:31;;;;;;;2.13;1.92;;;;;;;9.11;88.57;102567.47;5186219;28;20711;-82
2021/12/15 12:39:08;;;;;;;5.40;1.63;;;;;;;9.13;88.76;102572.72;5178369;28;20103;-81
2021/12/15 12:41:48;;;;;;;1.00;1.00;;;;;;;9.08;88.82;102564.81;5189808;28;20034;-80
2021/12/15 12:44:24;;;;;;;1.33;1.30;;;;;;;9.12;88.75;102555.25;5174738;28;20049;-81
2021/12/15 12:47:03;;;;;;;0.90;0.90;;;;;;;9.10;89.31;102562.19;5178573;28;20029;-81
2021/12/15 13:01:01;;;;;;;1.10;1.10;;;;;;;9.17;88.88;102560.53;5188058;28;20037;-78
2021/12/15 13:03:41;;;;;;;0.85;0.85;;;;;;;9.09;89.39;102561.34;5185220;28;20695;-79
2021/12/15 13:06:15;;;;;;;1.67;1.58;;;;;;;9.14;89.27;102559.63;5169481;28;20041;-79
2021/12/15 13:08:49;;;;;;;1.60;1.50;;;;;;;9.13;89.25;102565.72;5192443;28;20037;-80
2021/12/15 13:11:20;;;;;;;1.48;1.38;;;;;;;9.12;89.31;102560.47;5203178;28;20035;-79
2021/12/15 13:14:03;;;;;;;1.33;1.17;;;;;;;9.14;89.39;102564.84;5176927;28;20509;-77
2021/12/15 13:16:40;;;;;;;1.10;1.10;;;;;;;9.13;89.45;102559.63;5209308;28;20060;-78
2021/12/15 13:19:10;;;;;;;1.15;1.15;;;;;;;9.14;89.31;102558.75;5174172;28;20407;-78
2021/12/15 13:21:57;;;;;;;0.93;0.90;;;;;;;9.14;88.97;102559.63;5180938;28;20033;-77
2021/12/15 13:31:04;;;;;;;1.98;1.83;;;;;;;9.15;89.24;102560.53;5194697;28;20045;-76
2021/12/15 13:33:35;;;;;;;1.75;1.67;;;;;;;9.11;89.25;102559.63;5183741;28;20029;-79
2021/12/15 13:36:13;;;;;;;1.55;1.45;;;;;;;9.18;89.51;102551.81;5195762;28;20519;-79
2021/12/15 13:38:58;;;;;;;1.98;1.88;;;;;;;9.11;89.22;102556.09;5182217;28;20730;-78
2021/12/15 13:44:44;;;;;;;1.40;1.33;;;;;;;9.12;89.35;102550.00;5184380;28;20042;-79
2021/12/15 13:47:20;;;;;;;1.23;1.23;;;;;;;9.10;89.22;102557.84;5184433;28;20025;-78
2021/12/15 13:49:59;;;;;;;1.17;1.17;;;;;;;9.11;89.41;102557.00;5189929;28;20416;-78
2021/12/15 13:52:29;;;;;;;1.80;1.63;;;;;;;9.16;89.09;102556.13;5192489;28;20052;-78